Time;durP1;ratioP1;P1;durP2;ratioP2;P2;SDS_P1;SDS_P2;PMS_P1;PMS_P2;Temp;Humidity;BMP_temperature;BMP_pressure;BME280_temperature;BME280_humidity;BME280_pressure;Samples;Min_cycle;Max_cycle;Signal;HPM_P1;HPM_P2
2024/01/13 00:00:41;;;;;;;76.57;27.70;;;;;;;;;;5026059;28;20249;-80
2024/01/13 00:03:25;;;;;;;85.00;28.13;;;;;;;;;;5033668;28;20288;-79
2024/01/13 00:05:53;;;;;;;69.57;27.70;;;;;;;;;;5022767;28;20265;-78
2024/01/13 00:11:30;;;;;;;78.43;24.17;;;;;;;;;;5036956;28;20255;-87
2024/01/13 00:13:56;;;;;;;72.37;24.30;;;;;;;;;;5020329;28;20245;-87
2024/01/13 00:16:35;;;;;;;72.37;26.57;;;;;;;;;;5015897;28;20268;-85
2024/01/13 00:19:03;;;;;;;84.60;28.30;;;;;;;;;;5013280;28;20284;-81
2024/01/13 00:21:30;;;;;;;79.03;26.97;;;;;;;;;;5016759;28;20312;-84
2024/01/13 00:24:01;;;;;;;71.23;26.20;;;;;;;;;;5017689;28;20284;-79
2024/01/13 00:26:32;;;;;;;80.57;28.70;;;;;;;;;;5015503;28;20292;-80
2024/01/13 00:29:11;;;;;;;75.97;26.40;;;;;;;;;;5011564;28;20030;-79
2024/01/13 00:31:39;;;;;;;70.87;25.10;;;;;;;;;;5016035;28;20275;-81
2024/01/13 00:34:05;;;;;;;76.23;27.50;;;;;;;;;;5016816;28;20324;-85
2024/01/13 00:36:41;;;;;;;91.20;26.90;;;;;;;;;;5011761;28;20285;-80
2024/01/13 00:39:09;;;;;;;73.73;28.57;;;;;;;;;;5017512;28;20281;-80
2024/01/13 00:41:54;;;;;;;79.30;27.57;;;;;;;;;;5012572;28;20269;-76
2024/01/13 00:44:24;;;;;;;77.70;28.73;;;;;;;;;;5015873;28;20316;-80
2024/01/13 00:46:56;;;;;;;88.23;29.87;;;;;;;;;;5012965;28;20293;-82
2024/01/13 00:49:24;;;;;;;76.47;26.17;;;;;;;;;;5015009;28;20273;-76
2024/01/13 00:51:53;;;;;;;92.87;29.47;;;;;;;;;;5014756;28;20356;-76
2024/01/13 00:54:21;;;;;;;81.63;28.87;;;;;;;;;;5033035;28;20265;-77
2024/01/13 00:56:53;;;;;;;98.00;30.07;;;;;;;;;;5015414;28;21017;-81
2024/01/13 00:59:29;;;;;;;92.20;30.65;;;;;;;;;;5009500;28;20277;-78
2024/01/13 01:01:57;;;;;;;93.77;30.67;;;;;;;;;;5013295;28;20037;-78
2024/01/13 01:04:25;;;;;;;89.20;31.83;;;;;;;;;;5032406;28;20297;-79
2024/01/13 01:06:59;;;;;;;92.50;29.67;;;;;;;;;;5031667;28;20272;-77
2024/01/13 01:09:34;;;;;;;89.27;28.83;;;;;;;;;;5011484;28;20277;-81
2024/01/13 01:12:13;;;;;;;84.70;30.20;;;;;;;;;;5012975;28;20300;-77
2024/01/13 01:14:41;;;;;;;82.30;31.63;;;;;;;;;;5015029;28;20272;-79
2024/01/13 01:17:10;;;;;;;88.63;31.77;;;;;;;;;;5010349;28;20317;-78
2024/01/13 01:19:42;;;;;;;88.23;30.37;;;;;;;;;;5030367;28;20341;-81
2024/01/13 01:22:08;;;;;;;88.80;30.80;;;;;;;;;;5014593;28;20316;-80
2024/01/13 01:24:36;;;;;;;90.07;30.63;;;;;;;;;;5009125;28;20295;-78
2024/01/13 01:27:17;;;;;;;95.90;29.83;;;;;;;;;;5027773;28;20359;-78
2024/01/13 01:29:43;;;;;;;95.43;33.30;;;;;;;;;;5012891;28;20308;-80
2024/01/13 01:32:09;;;;;;;88.43;32.33;;;;;;;;;;5013918;28;20337;-81
2024/01/13 01:34:44;;;;;;;91.70;32.13;;;;;;;;;;5011662;28;20311;-85
2024/01/13 01:37:10;;;;;;;94.67;31.33;;;;;;;;;;5005962;28;20280;-80
2024/01/13 01:39:39;;;;;;;104.17;34.60;;;;;;;;;;5006146;28;20304;-77
2024/01/13 01:42:08;;;;;;;99.23;35.27;;;;;;;;;;5014977;28;20361;-82
2024/01/13 01:44:51;;;;;;;96.17;32.23;;;;;;;;;;5014852;28;20288;-79
2024/01/13 01:47:26;;;;;;;97.40;31.13;;;;;;;;;;5031109;28;20300;-88
2024/01/13 01:49:57;;;;;;;88.57;30.63;;;;;;;;;;5030649;28;20332;-79
2024/01/13 01:52:23;;;;;;;86.60;30.10;;;;;;;;;;5009632;28;20276;-78
2024/01/13 01:54:49;;;;;;;94.53;31.30;;;;;;;;;;5013877;28;20269;-79
2024/01/13 01:57:21;;;;;;;80.17;30.40;;;;;;;;;;5015217;28;20392;-78
2024/01/13 02:00:05;;;;;;;83.60;30.90;;;;;;;;;;5010219;28;20292;-78
2024/01/13 02:02:34;;;;;;;71.07;28.30;;;;;;;;;;5014574;28;20299;-79
2024/01/13 02:05:04;;;;;;;84.53;30.37;;;;;;;;;;5014081;28;20304;-82
2024/01/13 02:07:34;;;;;;;92.63;30.60;;;;;;;;;;5010794;28;20291;-84
2024/01/13 02:10:00;;;;;;;91.60;29.97;;;;;;;;;;5018735;28;20269;-77
2024/01/13 02:12:26;;;;;;;82.23;29.23;;;;;;;;;;5036283;28;20280;-77
2024/01/13 02:14:55;;;;;;;87.60;30.00;;;;;;;;;;5013773;28;20268;-76
2024/01/13 02:17:29;;;;;;;77.33;27.37;;;;;;;;;;5032445;28;20260;-77
2024/01/13 02:19:55;;;;;;;83.17;29.10;;;;;;;;;;5013492;28;20301;-79
2024/01/13 02:22:31;;;;;;;62.07;25.47;;;;;;;;;;5035313;28;20280;-83
2024/01/13 02:25:00;;;;;;;73.97;29.20;;;;;;;;;;5018236;28;20326;-78
2024/01/13 02:27:33;;;;;;;71.40;27.87;;;;;;;;;;5012363;28;20273;-81
2024/01/13 02:29:59;;;;;;;66.27;26.17;;;;;;;;;;5018437;28;20311;-79
2024/01/13 02:32:28;;;;;;;78.67;28.07;;;;;;;;;;5013243;28;20319;-81
2024/01/13 02:34:54;;;;;;;69.50;25.90;;;;;;;;;;5015276;28;20277;-77
2024/01/13 02:37:27;;;;;;;69.70;27.37;;;;;;;;;;5014700;28;20280;-76
2024/01/13 02:39:53;;;;;;;76.67;28.37;;;;;;;;;;5035275;28;20324;-78
2024/01/13 02:42:24;;;;;;;76.33;28.97;;;;;;;;;;5018898;28;20285;-81
2024/01/13 02:44:52;;;;;;;84.43;29.07;;;;;;;;;;5037341;28;20291;-76
2024/01/13 02:47:24;;;;;;;80.53;28.53;;;;;;;;;;5019180;28;20275;-81
2024/01/13 02:49:59;;;;;;;71.17;25.77;;;;;;;;;;5038589;28;20280;-81
2024/01/13 02:52:25;;;;;;;74.67;27.00;;;;;;;;;;5020149;28;20352;-85
2024/01/13 02:55:01;;;;;;;69.83;26.43;;;;;;;;;;5020657;28;20280;-81
2024/01/13 02:57:29;;;;;;;67.30;26.90;;;;;;;;;;5036956;28;20300;-80
2024/01/13 02:59:55;;;;;;;69.47;27.27;;;;;;;;;;5013758;28;20284;-77
2024/01/13 03:02:24;;;;;;;72.27;27.70;;;;;;;;;;5012060;28;20277;-79
2024/01/13 03:04:52;;;;;;;67.33;25.97;;;;;;;;;;5035816;28;20272;-83
2024/01/13 03:07:18;;;;;;;71.10;25.47;;;;;;;;;;5019250;28;20300;-85
2024/01/13 03:09:47;;;;;;;75.43;26.73;;;;;;;;;;5034554;28;20304;-81
2024/01/13 03:12:18;;;;;;;67.13;26.17;;;;;;;;;;5020692;28;20281;-77
2024/01/13 03:14:54;;;;;;;62.78;25.70;;;;;;;;;;5014600;28;20034;-82
2024/01/13 03:17:23;;;;;;;69.93;26.17;;;;;;;;;;5036077;28;20025;-82
2024/01/13 03:19:51;;;;;;;71.53;27.93;;;;;;;;;;5009886;28;20297;-80
2024/01/13 03:22:27;;;;;;;63.17;23.87;;;;;;;;;;5018353;28;20296;-81
2024/01/13 03:24:53;;;;;;;79.13;27.80;;;;;;;;;;5010424;28;20300;-79
2024/01/13 03:27:19;;;;;;;76.27;26.80;;;;;;;;;;5019174;28;20268;-80
2024/01/13 03:29:48;;;;;;;67.23;27.13;;;;;;;;;;5012109;28;20289;-77
2024/01/13 03:32:14;;;;;;;54.63;23.83;;;;;;;;;;5011043;28;20303;-80
2024/01/13 03:34:46;;;;;;;76.27;26.40;;;;;;;;;;5019577;28;20300;-80
2024/01/13 03:37:31;;;;;;;61.90;24.73;;;;;;;;;;5013569;28;20557;-78
2024/01/13 03:40:02;;;;;;;66.20;26.17;;;;;;;;;;5018906;28;20041;-79
2024/01/13 03:42:30;;;;;;;61.20;24.87;;;;;;;;;;5014629;28;20376;-79
2024/01/13 03:44:58;;;;;;;65.83;25.90;;;;;;;;;;5019181;28;20315;-77
2024/01/13 03:47:32;;;;;;;67.97;25.43;;;;;;;;;;5018350;28;20280;-83
2024/01/13 03:50:06;;;;;;;62.77;23.93;;;;;;;;;;5036873;28;20269;-77
2024/01/13 03:52:39;;;;;;;58.80;22.43;;;;;;;;;;5016213;28;20295;-78
2024/01/13 03:55:13;;;;;;;58.83;23.00;;;;;;;;;;5011726;28;20277;-77
2024/01/13 03:57:42;;;;;;;69.97;24.57;;;;;;;;;;5017440;28;20445;-79
2024/01/13 04:00:11;;;;;;;63.23;25.37;;;;;;;;;;5018271;28;20311;-78
2024/01/13 04:02:37;;;;;;;61.97;24.53;;;;;;;;;;5018592;28;20296;-81
2024/01/13 04:05:05;;;;;;;70.60;24.17;;;;;;;;;;5018138;28;20312;-77
2024/01/13 04:07:34;;;;;;;62.40;24.27;;;;;;;;;;5017857;28;20300;-77
2024/01/13 04:10:06;;;;;;;61.40;23.80;;;;;;;;;;5019650;28;20280;-76
2024/01/13 04:12:39;;;;;;;54.23;22.57;;;;;;;;;;5019013;28;20277;-78
2024/01/13 04:15:20;;;;;;;;;;;;;;;;;;;;;
2024/01/13 04:17:53;;;;;;;55.47;22.63;;;;;;;;;;5036924;28;20292;-86
2024/01/13 04:20:29;;;;;;;59.47;23.77;;;;;;;;;;5010554;28;20272;-83
2024/01/13 04:22:55;;;;;;;58.90;24.00;;;;;;;;;;5016509;28;20284;-81
2024/01/13 04:25:21;;;;;;;52.93;22.90;;;;;;;;;;5015739;28;20906;-81
2024/01/13 04:27:48;;;;;;;52.97;21.83;;;;;;;;;;5012362;28;20284;-82
2024/01/13 04:30:17;;;;;;;56.30;21.87;;;;;;;;;;5017332;28;20331;-82
2024/01/13 04:32:43;;;;;;;55.87;22.43;;;;;;;;;;5010207;28;20304;-85
2024/01/13 04:35:20;;;;;;;55.47;24.13;;;;;;;;;;5031892;28;20315;-81
2024/01/13 04:37:49;;;;;;;56.50;22.00;;;;;;;;;;5017462;28;20300;-87
2024/01/13 04:40:23;;;;;;;55.40;21.77;;;;;;;;;;5016638;28;20288;-77
2024/01/13 04:42:52;;;;;;;56.20;22.37;;;;;;;;;;5010886;28;20280;-80
2024/01/13 04:45:18;;;;;;;56.77;22.33;;;;;;;;;;5021894;28;20292;-84
2024/01/13 04:47:44;;;;;;;54.00;21.57;;;;;;;;;;5017741;28;20037;-86
2024/01/13 04:50:22;;;;;;;62.97;24.43;;;;;;;;;;5024103;28;20265;-81
2024/01/13 04:52:54;;;;;;;61.60;22.13;;;;;;;;;;5021760;28;20320;-82
2024/01/13 04:55:27;;;;;;;57.92;22.15;;;;;;;;;;5022285;28;20281;-80
2024/01/13 04:57:55;;;;;;;54.70;22.60;;;;;;;;;;5035310;28;20089;-85
2024/01/13 05:00:21;;;;;;;52.27;22.07;;;;;;;;;;5015908;28;20289;-87
2024/01/13 05:02:53;;;;;;;51.33;20.93;;;;;;;;;;5036508;28;20276;-89
2024/01/13 05:05:24;;;;;;;55.50;21.40;;;;;;;;;;5024783;28;20259;-86
2024/01/13 05:07:52;;;;;;;62.47;22.13;;;;;;;;;;5027630;28;20272;-80
2024/01/13 05:10:18;;;;;;;48.63;19.93;;;;;;;;;;5020717;28;20300;-86
2024/01/13 05:12:47;;;;;;;56.60;21.87;;;;;;;;;;5038413;28;20300;-87
2024/01/13 05:15:13;;;;;;;52.13;20.83;;;;;;;;;;5022354;28;20368;-88
2024/01/13 05:17:47;;;;;;;51.40;22.33;;;;;;;;;;5020544;28;20348;-79
2024/01/13 05:20:13;;;;;;;56.60;23.20;;;;;;;;;;5018468;28;20267;-82
2024/01/13 05:22:41;;;;;;;49.33;21.63;;;;;;;;;;5020298;28;20273;-81
2024/01/13 05:25:09;;;;;;;52.37;22.13;;;;;;;;;;5036520;28;20289;-78
2024/01/13 05:27:35;;;;;;;53.23;22.17;;;;;;;;;;5008337;28;20272;-77
2024/01/13 05:30:12;;;;;;;59.03;23.40;;;;;;;;;;5017968;28;20280;-83
2024/01/13 05:32:39;;;;;;;61.73;22.60;;;;;;;;;;5017090;28;20281;-79
2024/01/13 05:35:06;;;;;;;58.10;22.97;;;;;;;;;;5015441;28;20292;-87
2024/01/13 05:37:32;;;;;;;52.60;24.00;;;;;;;;;;5017336;28;20265;-85
2024/01/13 05:39:58;;;;;;;60.63;24.60;;;;;;;;;;5018764;28;20323;-84
2024/01/13 05:42:26;;;;;;;56.00;23.23;;;;;;;;;;5018146;28;20280;-88
2024/01/13 05:44:55;;;;;;;59.73;25.03;;;;;;;;;;5017499;28;20037;-79
2024/01/13 05:47:24;;;;;;;57.13;24.43;;;;;;;;;;5017065;28;20249;-80
2024/01/13 05:49:50;;;;;;;59.37;23.47;;;;;;;;;;5017647;28;20336;-87
2024/01/13 05:52:16;;;;;;;68.17;24.87;;;;;;;;;;5019173;28;20261;-81
2024/01/13 05:54:47;;;;;;;57.13;24.80;;;;;;;;;;5021705;28;20265;-83
2024/01/13 05:57:20;;;;;;;58.27;24.50;;;;;;;;;;5019504;28;20277;-82
2024/01/13 05:59:46;;;;;;;62.67;24.63;;;;;;;;;;5018698;28;20273;-81
2024/01/13 06:02:14;;;;;;;56.80;23.30;;;;;;;;;;5015836;28;20308;-82
2024/01/13 06:04:48;;;;;;;55.33;22.77;;;;;;;;;;5036576;28;20324;-82
2024/01/13 06:07:16;;;;;;;54.50;23.20;;;;;;;;;;5020263;28;20320;-80
2024/01/13 06:09:47;;;;;;;50.93;24.17;;;;;;;;;;5019862;28;20292;-78
2024/01/13 06:12:15;;;;;;;53.27;23.43;;;;;;;;;;5020245;28;20341;-88
2024/01/13 06:14:52;;;;;;;52.67;22.93;;;;;;;;;;5019590;28;20300;-82
2024/01/13 06:17:20;;;;;;;51.60;22.53;;;;;;;;;;5020367;28;20285;-81
2024/01/13 06:19:53;;;;;;;56.37;23.80;;;;;;;;;;5017324;28;20283;-77
2024/01/13 06:22:20;;;;;;;50.40;22.73;;;;;;;;;;5034285;28;20026;-83
2024/01/13 06:24:51;;;;;;;50.70;23.70;;;;;;;;;;5009429;28;20037;-78
2024/01/13 06:27:35;;;;;;;57.00;22.63;;;;;;;;;;5016424;28;20275;-82
2024/01/13 06:30:03;;;;;;;50.63;21.57;;;;;;;;;;5015972;28;20300;-77
2024/01/13 06:32:29;;;;;;;55.00;21.77;;;;;;;;;;5009741;28;20273;-85
2024/01/13 06:34:55;;;;;;;50.40;21.10;;;;;;;;;;5036089;28;20276;-82
2024/01/13 06:37:21;;;;;;;53.43;22.27;;;;;;;;;;5013191;28;20269;-78
2024/01/13 06:39:51;;;;;;;48.73;20.27;;;;;;;;;;5031779;28;20349;-80
2024/01/13 06:42:17;;;;;;;48.93;20.97;;;;;;;;;;5015222;28;20274;-78
2024/01/13 06:45:01;;;;;;;51.97;21.93;;;;;;;;;;5033141;28;20045;-78
2024/01/13 06:47:29;;;;;;;45.70;21.03;;;;;;;;;;5009688;28;20284;-85
2024/01/13 06:50:03;;;;;;;44.57;21.07;;;;;;;;;;5016537;28;20296;-78
2024/01/13 06:52:37;;;;;;;51.27;22.23;;;;;;;;;;5014229;28;20292;-83
2024/01/13 06:55:10;;;;;;;48.37;22.83;;;;;;;;;;5014635;28;20277;-88
2024/01/13 06:57:37;;;;;;;48.40;20.67;;;;;;;;;;5013340;28;20284;-77
2024/01/13 07:00:08;;;;;;;48.23;20.97;;;;;;;;;;5031773;28;20324;-78
2024/01/13 07:02:49;;;;;;;;;;;;;;;;;;;;;
2024/01/13 07:05:18;;;;;;;46.20;21.40;;;;;;;;;;5031532;28;20060;-79
2024/01/13 07:07:49;;;;;;;45.33;20.80;;;;;;;;;;5030781;28;20271;-77
2024/01/13 07:10:18;;;;;;;43.00;19.70;;;;;;;;;;5016285;28;20277;-83
2024/01/13 07:12:48;;;;;;;49.20;21.87;;;;;;;;;;5010394;28;20064;-82
2024/01/13 07:15:20;;;;;;;46.63;20.40;;;;;;;;;;5014633;28;20288;-78
2024/01/13 07:17:53;;;;;;;51.63;21.63;;;;;;;;;;5015603;28;20292;-86
2024/01/13 07:20:27;;;;;;;41.63;20.70;;;;;;;;;;5033278;28;20253;-83
2024/01/13 07:22:57;;;;;;;44.37;21.13;;;;;;;;;;5012055;28;20026;-80
2024/01/13 07:25:25;;;;;;;36.97;18.93;;;;;;;;;;5009962;28;20308;-81
2024/01/13 07:27:51;;;;;;;42.73;19.43;;;;;;;;;;5033045;28;20025;-82
2024/01/13 07:30:17;;;;;;;44.83;22.40;;;;;;;;;;5011947;28;20068;-84
2024/01/13 07:32:45;;;;;;;49.27;21.60;;;;;;;;;;5030918;28;20068;-83
2024/01/13 07:35:13;;;;;;;39.93;21.63;;;;;;;;;;5016154;28;20773;-79
2024/01/13 07:37:40;;;;;;;42.27;21.30;;;;;;;;;;5010617;28;20033;-83
2024/01/13 07:40:21;;;;;;;48.67;23.17;;;;;;;;;;5032084;28;20132;-83
2024/01/13 07:42:48;;;;;;;42.93;20.57;;;;;;;;;;5013319;28;20284;-83
2024/01/13 07:45:15;;;;;;;47.33;23.10;;;;;;;;;;5015655;28;20026;-81
2024/01/13 07:47:43;;;;;;;43.77;22.10;;;;;;;;;;5011892;28;20054;-85
2024/01/13 07:50:14;;;;;;;42.97;21.43;;;;;;;;;;5014512;28;20026;-83
2024/01/13 07:52:40;;;;;;;43.40;22.77;;;;;;;;;;5013146;28;20026;-83
2024/01/13 07:55:11;;;;;;;40.93;20.80;;;;;;;;;;5010558;28;20061;-83
2024/01/13 07:57:45;;;;;;;46.30;23.33;;;;;;;;;;5008737;28;20034;-84
2024/01/13 08:00:15;;;;;;;47.93;25.23;;;;;;;;;;5029897;28;20779;-79
2024/01/13 08:02:41;;;;;;;43.67;22.33;;;;;;;;;;5013608;28;20080;-86
2024/01/13 08:05:07;;;;;;;44.20;23.30;;;;;;;;;;5031743;28;20096;-80
2024/01/13 08:07:42;;;;;;;40.77;21.03;;;;;;;;;;5010495;28;20076;-81
2024/01/13 08:10:15;;;;;;;43.80;21.80;;;;;;;;;;5013861;28;20285;-85
2024/01/13 08:12:46;;;;;;;43.77;21.67;;;;;;;;;;5013505;28;20010;-81
2024/01/13 08:15:14;;;;;;;39.57;21.87;;;;;;;;;;5014062;28;20148;-86
2024/01/13 08:17:47;;;;;;;49.00;23.23;;;;;;;;;;5009022;28;20485;-83
2024/01/13 08:20:14;;;;;;;39.17;22.10;;;;;;;;;;5013633;28;20269;-81
2024/01/13 08:22:40;;;;;;;40.87;22.03;;;;;;;;;;5012903;28;20034;-85
2024/01/13 08:25:08;;;;;;;45.90;22.40;;;;;;;;;;5028468;28;20054;-84
2024/01/13 08:27:37;;;;;;;41.23;23.50;;;;;;;;;;5010574;28;20018;-83
2024/01/13 08:30:05;;;;;;;39.10;21.87;;;;;;;;;;5009948;28;20037;-85
2024/01/13 08:32:32;;;;;;;44.23;21.70;;;;;;;;;;5029869;28;20082;-83
2024/01/13 08:35:18;;;;;;;41.97;21.73;;;;;;;;;;5029480;28;20028;-87
2024/01/13 08:37:45;;;;;;;43.33;21.90;;;;;;;;;;5028645;28;20042;-86
2024/01/13 08:40:11;;;;;;;47.97;23.50;;;;;;;;;;5006843;28;20030;-87
2024/01/13 08:42:42;;;;;;;39.87;22.50;;;;;;;;;;5012380;28;20034;-86
2024/01/13 08:45:10;;;;;;;43.93;23.67;;;;;;;;;;5031394;28;20034;-83
2024/01/13 08:47:36;;;;;;;43.23;23.77;;;;;;;;;;5010179;28;20033;-83
2024/01/13 08:50:05;;;;;;;41.33;22.90;;;;;;;;;;5009519;28;20030;-83
2024/01/13 08:52:50;;;;;;;38.87;22.67;;;;;;;;;;5014552;28;20028;-79
2024/01/13 08:55:16;;;;;;;39.33;22.27;;;;;;;;;;5004172;28;20037;-86
2024/01/13 08:57:49;;;;;;;41.63;21.77;;;;;;;;;;5013073;28;20029;-80
2024/01/13 09:00:23;;;;;;;42.07;22.93;;;;;;;;;;5033264;28;20018;-87
2024/01/13 09:02:51;;;;;;;42.37;22.53;;;;;;;;;;5015771;28;20061;-87
2024/01/13 09:05:20;;;;;;;42.23;20.87;;;;;;;;;;5016296;28;20026;-79
2024/01/13 09:07:53;;;;;;;40.03;22.23;;;;;;;;;;5016404;28;20040;-89
2024/01/13 09:10:24;;;;;;;39.53;21.63;;;;;;;;;;5036215;28;20026;-77
2024/01/13 09:12:56;;;;;;;36.03;22.03;;;;;;;;;;5018398;28;20033;-79
2024/01/13 09:15:32;;;;;;;34.42;20.45;;;;;;;;;;5016166;28;20025;-77
2024/01/13 09:18:06;;;;;;;33.93;18.87;;;;;;;;;;5031332;28;20049;-80
2024/01/13 09:20:33;;;;;;;37.63;19.93;;;;;;;;;;5015504;28;20063;-85
2024/01/13 09:22:59;;;;;;;31.10;17.90;;;;;;;;;;5014107;28;20059;-86
2024/01/13 09:25:27;;;;;;;30.67;17.73;;;;;;;;;;5013220;28;20098;-84
2024/01/13 09:27:53;;;;;;;32.17;17.47;;;;;;;;;;5013238;28;20627;-80
2024/01/13 09:30:21;;;;;;;29.27;16.57;;;;;;;;;;5031183;28;20556;-82
2024/01/13 09:32:50;;;;;;;33.93;17.90;;;;;;;;;;5012492;28;20036;-87
2024/01/13 09:35:16;;;;;;;28.53;16.73;;;;;;;;;;5030339;28;20037;-82
2024/01/13 09:37:42;;;;;;;30.10;16.50;;;;;;;;;;5011924;28;20049;-79
2024/01/13 09:40:10;;;;;;;26.43;15.87;;;;;;;;;;5009025;28;20041;-87
2024/01/13 09:43:00;;;;;;;32.73;17.53;;;;;;;;;;5012929;28;20041;-88
2024/01/13 09:45:27;;;;;;;28.00;15.63;;;;;;;;;;5001647;28;20038;-88
2024/01/13 09:47:57;;;;;;;27.27;15.47;;;;;;;;;;5017464;28;20025;-82
2024/01/13 09:50:24;;;;;;;25.60;14.90;;;;;;;;;;5007627;28;21356;-81
2024/01/13 09:53:08;;;;;;;24.77;14.13;;;;;;;;;;5016509;28;20026;-78
2024/01/13 09:55:42;;;;;;;25.87;14.17;;;;;;;;;;5010354;28;20041;-81
2024/01/13 09:58:11;;;;;;;25.77;14.93;;;;;;;;;;5016435;28;20049;-79
2024/01/13 10:00:40;;;;;;;25.07;13.90;;;;;;;;;;5012534;28;20231;-78
2024/01/13 10:03:06;;;;;;;28.73;14.17;;;;;;;;;;5015065;28;20029;-79
2024/01/13 10:05:34;;;;;;;22.33;12.50;;;;;;;;;;5007994;28;20033;-80
2024/01/13 10:08:03;;;;;;;24.50;13.47;;;;;;;;;;5007947;28;20099;-83
2024/01/13 10:10:34;;;;;;;21.00;11.87;;;;;;;;;;5015527;28;20040;-82
2024/01/13 10:13:03;;;;;;;18.70;11.02;;;;;;;;;;5007111;28;20026;-89
2024/01/13 10:15:54;;;;;;;25.73;12.57;;;;;;;;;;5009749;28;20098;-84
2024/01/13 10:18:51;;;;;;;23.30;13.57;;;;;;;;;;5032672;28;20302;-78
2024/01/13 10:27:48;;;;;;;;;;;;;;;;;;;;;
2024/01/13 10:30:34;;;;;;;22.83;10.67;;;;;;;;;;5039500;28;20054;-79
2024/01/13 10:33:09;;;;;;;23.03;11.70;;;;;;;;;;5022898;28;20041;-78
2024/01/13 10:45:07;;;;;;;22.80;9.40;;;;;;;;;;5010249;23;20310;-77
2024/01/13 10:47:42;;;;;;;20.73;9.23;;;;;;;;;;5027657;28;20051;-82
2024/01/13 10:50:11;;;;;;;18.63;9.20;;;;;;;;;;5044159;28;20009;-79
2024/01/13 10:53:14;;;;;;;21.60;11.37;;;;;;;;;;5071481;28;20256;-77
2024/01/13 10:55:49;;;;;;;20.40;10.20;;;;;;;;;;5033455;28;20018;-78
2024/01/13 11:01:18;;;;;;;16.90;9.03;;;;;;;;;;5056111;28;20045;-84
2024/01/13 11:03:56;;;;;;;17.93;11.03;;;;;;;;;;5046780;28;20089;-88
2024/01/13 11:06:36;;;;;;;17.90;10.63;;;;;;;;;;5034817;28;20276;-88
2024/01/13 11:09:05;;;;;;;17.40;9.73;;;;;;;;;;5025388;28;20029;-91
2024/01/13 11:11:39;;;;;;;18.33;10.70;;;;;;;;;;5033026;28;20030;-88
2024/01/13 11:14:18;;;;;;;19.20;10.53;;;;;;;;;;5036350;28;20027;-90
2024/01/13 11:16:47;;;;;;;21.27;10.70;;;;;;;;;;5046990;28;20083;-90
2024/01/13 11:19:20;;;;;;;16.90;10.47;;;;;;;;;;5031246;28;20029;-91
2024/01/13 11:21:48;;;;;;;17.23;10.10;;;;;;;;;;5032132;28;20064;-88
2024/01/13 11:24:17;;;;;;;21.23;10.87;;;;;;;;;;5021946;28;20037;-89
2024/01/13 11:26:43;;;;;;;19.70;10.30;;;;;;;;;;5028335;28;20022;-90
2024/01/13 11:29:16;;;;;;;19.00;9.87;;;;;;;;;;5031162;28;20032;-92
2024/01/13 11:31:46;;;;;;;18.87;9.90;;;;;;;;;;5035753;28;20030;-91
2024/01/13 11:34:15;;;;;;;20.13;10.87;;;;;;;;;;5055512;28;20056;-91
2024/01/13 11:36:44;;;;;;;21.13;9.47;;;;;;;;;;5033765;28;20029;-89
2024/01/13 11:39:11;;;;;;;15.90;10.53;;;;;;;;;;5024097;28;20026;-91
2024/01/13 11:41:47;;;;;;;18.30;10.77;;;;;;;;;;5032755;28;20044;-90
2024/01/13 11:44:23;;;;;;;18.77;10.73;;;;;;;;;;5035678;28;20097;-87
2024/01/13 11:47:11;;;;;;;19.77;11.07;;;;;;;;;;5016701;28;20085;-87
2024/01/13 11:49:43;;;;;;;17.07;10.50;;;;;;;;;;5037890;28;20101;-91
2024/01/13 11:52:14;;;;;;;17.80;10.98;;;;;;;;;;5033370;28;20279;-89
2024/01/13 11:54:43;;;;;;;18.03;10.20;;;;;;;;;;5036338;28;20030;-92
2024/01/13 11:57:10;;;;;;;23.40;11.77;;;;;;;;;;5034792;28;20308;-92
2024/01/13 11:59:36;;;;;;;25.47;11.63;;;;;;;;;;5031620;28;20029;-93
2024/01/13 12:02:03;;;;;;;23.13;12.43;;;;;;;;;;5034091;28;20037;-88
2024/01/13 12:04:49;;;;;;;23.00;11.80;;;;;;;;;;5039443;28;20045;-84
2024/01/13 12:07:25;;;;;;;23.53;11.20;;;;;;;;;;5035546;28;20280;-90
2024/01/13 12:09:56;;;;;;;25.87;13.27;;;;;;;;;;5057387;28;20335;-91
2024/01/13 12:12:29;;;;;;;22.27;12.37;;;;;;;;;;5031673;28;20335;-92
2024/01/13 12:15:07;;;;;;;22.23;12.47;;;;;;;;;;5039649;28;20252;-86
2024/01/13 12:17:48;;;;;;;27.07;13.57;;;;;;;;;;5032908;28;20284;-84
2024/01/13 12:20:31;;;;;;;25.93;12.10;;;;;;;;;;5025365;28;20364;-86
2024/01/13 12:22:57;;;;;;;21.67;13.07;;;;;;;;;;5024506;28;20097;-83
2024/01/13 12:25:31;;;;;;;28.20;15.77;;;;;;;;;;5032521;28;20295;-77
2024/01/13 12:28:13;;;;;;;32.40;13.67;;;;;;;;;;5030149;28;20303;-83
2024/01/13 12:30:40;;;;;;;27.73;14.13;;;;;;;;;;5026742;28;20291;-86
2024/01/13 12:36:05;;;;;;;28.27;15.30;;;;;;;;;;5046443;28;20291;-86
2024/01/13 12:38:32;;;;;;;26.17;13.33;;;;;;;;;;5028136;28;20039;-85
2024/01/13 12:41:00;;;;;;;30.43;15.17;;;;;;;;;;5016844;28;20042;-86
2024/01/13 12:43:48;;;;;;;28.00;13.70;;;;;;;;;;5029597;28;20038;-88
2024/01/13 12:46:16;;;;;;;29.33;15.07;;;;;;;;;;5017315;28;20026;-82
2024/01/13 12:48:44;;;;;;;27.03;15.00;;;;;;;;;;5026171;28;20033;-86
2024/01/13 12:51:14;;;;;;;26.90;14.73;;;;;;;;;;5024521;28;20036;-87
2024/01/13 12:53:43;;;;;;;36.63;17.73;;;;;;;;;;5027811;28;20260;-87
2024/01/13 12:56:11;;;;;;;36.50;16.97;;;;;;;;;;5039595;28;20276;-87
2024/01/13 12:59:00;;;;;;;35.70;16.83;;;;;;;;;;5022964;28;20342;-81
2024/01/13 13:01:28;;;;;;;36.90;17.17;;;;;;;;;;5012638;28;20300;-89
2024/01/13 13:04:11;;;;;;;33.70;16.40;;;;;;;;;;5020186;28;20128;-83
2024/01/13 13:06:42;;;;;;;32.07;17.73;;;;;;;;;;5022305;28;20041;-87
2024/01/13 13:09:10;;;;;;;33.63;16.80;;;;;;;;;;5026506;28;20280;-85
2024/01/13 13:11:36;;;;;;;34.83;17.93;;;;;;;;;;5025222;28;20273;-87
2024/01/13 13:14:04;;;;;;;34.80;16.83;;;;;;;;;;5026141;28;20283;-86
2024/01/13 13:16:47;;;;;;;31.67;16.73;;;;;;;;;;5025587;28;20339;-89
2024/01/13 13:19:21;;;;;;;32.57;18.10;;;;;;;;;;5024942;28;20284;-86
2024/01/13 13:21:48;;;;;;;34.93;18.07;;;;;;;;;;5041236;28;20338;-82
2024/01/13 13:24:14;;;;;;;39.80;18.10;;;;;;;;;;5038949;28;20288;-85
2024/01/13 13:26:41;;;;;;;37.03;18.17;;;;;;;;;;5028010;28;20284;-88
2024/01/13 13:29:07;;;;;;;35.87;18.83;;;;;;;;;;5022703;28;20279;-89
2024/01/13 13:31:33;;;;;;;36.23;18.53;;;;;;;;;;5023542;28;20295;-85
2024/01/13 13:34:02;;;;;;;35.47;18.97;;;;;;;;;;5021143;28;20319;-88
2024/01/13 13:36:28;;;;;;;40.97;20.70;;;;;;;;;;5022132;28;20314;-87
2024/01/13 13:38:54;;;;;;;39.50;19.80;;;;;;;;;;5024365;28;20029;-87
2024/01/13 13:41:22;;;;;;;37.93;20.57;;;;;;;;;;5040406;28;20044;-86
2024/01/13 13:44:37;;;;;;;;;;;;;;;;;;;;;
2024/01/13 13:51:14;;;;;;;;;;;;;;;;;;;;;
2024/01/13 13:53:11;;;;;;;38.37;17.93;;;;;;;;;;5031442;28;20128;-85
2024/01/13 13:55:37;;;;;;;35.37;18.27;;;;;;;;;;5020984;28;20272;-84
2024/01/13 13:58:09;;;;;;;43.17;19.15;;;;;;;;;;5039671;28;20276;-86
2024/01/13 14:00:35;;;;;;;41.00;19.13;;;;;;;;;;5029801;28;20179;-85
2024/01/13 14:03:01;;;;;;;42.87;19.87;;;;;;;;;;5040335;28;20025;-83
2024/01/13 14:05:27;;;;;;;40.47;20.57;;;;;;;;;;5029525;28;19917;-83
2024/01/13 14:07:53;;;;;;;43.27;20.03;;;;;;;;;;5028663;28;20308;-85
2024/01/13 14:10:19;;;;;;;41.23;19.93;;;;;;;;;;5045371;28;20025;-86
2024/01/13 14:12:47;;;;;;;42.67;20.40;;;;;;;;;;5030568;28;20032;-89
2024/01/13 14:15:17;;;;;;;39.07;19.53;;;;;;;;;;5022910;28;20359;-84
2024/01/13 14:17:43;;;;;;;41.07;21.07;;;;;;;;;;5023058;28;20269;-86
2024/01/13 14:20:09;;;;;;;44.30;20.37;;;;;;;;;;5025775;28;20282;-88
2024/01/13 14:22:38;;;;;;;39.23;20.43;;;;;;;;;;5022897;28;20598;-84
2024/01/13 14:25:06;;;;;;;39.37;19.53;;;;;;;;;;5042010;28;20319;-88
2024/01/13 14:27:34;;;;;;;45.40;20.87;;;;;;;;;;5026045;28;20277;-83
2024/01/13 14:30:00;;;;;;;40.07;22.20;;;;;;;;;;5025499;28;20026;-89
2024/01/13 14:32:26;;;;;;;40.90;20.67;;;;;;;;;;5026834;28;20064;-86
2024/01/13 14:34:53;;;;;;;42.63;20.17;;;;;;;;;;5025728;28;20055;-87
2024/01/13 14:37:19;;;;;;;40.23;21.60;;;;;;;;;;5037838;28;20034;-88
2024/01/13 14:39:45;;;;;;;41.90;21.00;;;;;;;;;;5022409;28;20268;-85
2024/01/13 14:42:11;;;;;;;43.43;21.70;;;;;;;;;;5020669;28;20280;-88
2024/01/13 14:44:37;;;;;;;39.17;20.00;;;;;;;;;;5024868;28;20302;-86
2024/01/13 14:47:04;;;;;;;47.23;22.63;;;;;;;;;;5027362;28;20053;-89
2024/01/13 14:49:32;;;;;;;41.50;22.77;;;;;;;;;;5025208;28;20272;-85
2024/01/13 14:58:05;;;;;;;43.87;21.90;;;;;;;;;;5026189;28;20273;-86
2024/01/13 15:00:31;;;;;;;44.57;22.23;;;;;;;;;;5020292;28;20305;-89
2024/01/13 15:02:57;;;;;;;45.87;22.43;;;;;;;;;;5023735;28;20148;-83
2024/01/13 15:05:26;;;;;;;49.30;23.67;;;;;;;;;;5025544;28;20312;-88
2024/01/13 15:07:52;;;;;;;50.13;23.83;;;;;;;;;;5020055;28;20378;-83
2024/01/13 15:10:21;;;;;;;47.93;24.23;;;;;;;;;;5022160;28;20311;-85
2024/01/13 15:12:47;;;;;;;49.67;25.03;;;;;;;;;;5024025;28;20271;-83
2024/01/13 15:15:16;;;;;;;49.97;23.10;;;;;;;;;;5037201;28;20271;-87